Hauptseite
METAR-TAF:

METAR-TAF

Flughäfen :

Flughafen Paris-Charles-de-Gaulle

Paris-Charles De Gaulle, Frankreich

Breite: 49-01N, Länge: 002-32E, Höhe: 118 m

Beobachtung

Neuester Wetterbericht von vor 21 Minuten, um 18:30 UTC
Wind 9 kt aus Ost
Temperatur 6°C
Luftfeuchtigkeit 100%
Luftdruck 1025 hPa
Sichtweite: 0900 m
Nebel

METAR: LFPG 161830Z 08009KT 0900 R27L/1100N R09R/1200U R26R/1400U R08L/1500D R26L/1500D R08R/1000D R27R/1100N R09L/1500U FG VV/// 06/06 Q1025 NOSIG

Zeit: 19:51 (18:51 UTC)

Prognose

Neuester Wetterbericht von vor 1 Stunde und 51 Minuten, um 17:00 UTC
Gültige Prognose vom 16 um 18 UTC bis 17 um 24 UTC
Wind 8 kt aus Ost/Nordost
Sichtweite: 0700 m
Nebel
Übergehend zu
vom 16 um 20 UTC bis 16 um 22 UTC
Sichtweite 10 km oder mehr
keine Wolken unter 1500 m und keine Kumulonimbus oder Gewitterwolken

TAF: LFPG 161700Z 1618/1724 07008KT 0700 FG VV/// TX09/1715Z TN02/1706Z BECMG 1620/1622 CAVOK

Wetterbeobachtungen und Prognosen von mehr als 4000 Flughäfen (METAR und TAF Bericht).

Die verfügbaren Stationen werden durch gelbe und rote Markierungen auf der Karte dargestellt.

Führen Sie die Maus auf sie, um den Namen der Station zu sehen.

Darauf klicken, um die Beobachtung von Wetterbeobachtungen und Prognosen zu sehen.

Um die Karte zu ändern : klicken Sie auf den grünen Tasten mit einem schwarzen Kreuz Zum Vergrößern, auf den grünen Button mit einem Gedankenstrich zu verkleinern, oder auf die grünen Pfeile für benachbarte Karten.


METAR-TAF: